createdAt,value
2022-12-08T00:00:09.694Z,94983.5
2022-12-08T00:01:12.066Z,94984
2022-12-08T00:02:15.606Z,94976.8
2022-12-08T00:03:19.825Z,94982.5
2022-12-08T00:04:22.151Z,94982.8
2022-12-08T00:05:24.367Z,94976.8
2022-12-08T00:06:26.271Z,94973.1
2022-12-08T00:07:28.409Z,94975.6
2022-12-08T00:08:30.051Z,94973.5
2022-12-08T00:11:42.491Z,94976.2
2022-12-08T00:12:44.971Z,94974.1
2022-12-08T00:13:47.750Z,94975.8
2022-12-08T00:14:50.231Z,94977
2022-12-08T00:15:52.448Z,94975
2022-12-08T00:16:54.781Z,94978.3
2022-12-08T00:17:57.574Z,94978
2022-12-08T00:19:00.087Z,94972.9
2022-12-08T00:20:02.283Z,94971.1
2022-12-08T00:21:04.763Z,94970.9
2022-12-08T00:22:07.269Z,94970.3
2022-12-08T00:23:09.191Z,94975
2022-12-08T00:24:11.375Z,94976.7
2022-12-08T00:25:13.585Z,94974.8
2022-12-08T00:26:16.063Z,94976.5
2022-12-08T00:27:18.258Z,94975.1
2022-12-08T00:28:20.738Z,94977.3
2022-12-08T00:29:22.966Z,94973.3
2022-12-08T00:30:25.160Z,94968.6
2022-12-08T00:31:27.933Z,94965.7
2022-12-08T00:32:30.489Z,94967
2022-12-08T00:33:33.180Z,94966.5
2022-12-08T00:34:35.402Z,94965.9
2022-12-08T00:36:42.873Z,94965.4
2022-12-08T00:37:45.082Z,94963.7
2022-12-08T00:38:47.556Z,94962.8
2022-12-08T00:39:50.042Z,94964.8
2022-12-08T00:40:52.228Z,94963.8
2022-12-08T00:41:54.441Z,94966.3
2022-12-08T00:42:56.639Z,94964.7
2022-12-08T00:43:58.848Z,94962.6
2022-12-08T00:45:01.062Z,94964.9
2022-12-08T00:46:03.974Z,94962.8
2022-12-08T00:47:06.610Z,94955.2
2022-12-08T00:48:09.091Z,94955.8
2022-12-08T00:49:11.095Z,94960.6
2022-12-08T00:50:13.612Z,94961.6
2022-12-08T00:51:15.826Z,94957.1
2022-12-08T00:52:18.030Z,94960
2022-12-08T00:53:20.524Z,94956.4
2022-12-08T00:54:23.026Z,94953.2
2022-12-08T00:55:25.521Z,94951.7
2022-12-08T00:56:28.006Z,94957.3
2022-12-08T00:57:30.200Z,94953.5
2022-12-08T00:58:32.424Z,94951.4
2022-12-08T00:59:34.908Z,94949.4
2022-12-08T01:00:37.417Z,94948.8
2022-12-08T01:01:40.283Z,94953.3
2022-12-08T01:02:43.006Z,94952.3
2022-12-08T01:03:45.799Z,94952.2
2022-12-08T01:04:48.550Z,94957
2022-12-08T01:05:51.043Z,94949.6
2022-12-08T01:06:53.251Z,94948.1
2022-12-08T01:07:55.806Z,94951.6
2022-12-08T01:08:57.855Z,94950.7
2022-12-08T01:10:00.080Z,94947.8
2022-12-08T01:11:02.597Z,94946.5
2022-12-08T01:12:04.516Z,94947.7
2022-12-08T01:13:07.009Z,94951.1
2022-12-08T01:14:09.485Z,94947.2
2022-12-08T01:15:11.694Z,94945.4
2022-12-08T01:16:14.447Z,94947.6
2022-12-08T01:17:17.015Z,94954.4
2022-12-08T01:18:19.519Z,94952.6
2022-12-08T01:19:21.444Z,94953.8
2022-12-08T01:20:23.747Z,94954
2022-12-08T01:21:25.969Z,94954.9
2022-12-08T01:22:28.458Z,94954.6
2022-12-08T01:23:30.714Z,94948
2022-12-08T01:24:33.192Z,94945.9
2022-12-08T01:25:35.693Z,94945.3
2022-12-08T01:26:38.182Z,94949.6
2022-12-08T01:27:40.686Z,94941.9
2022-12-08T01:28:43.160Z,94945.9
2022-12-08T01:29:45.655Z,94949.4
2022-12-08T01:30:48.418Z,94944.8
2022-12-08T01:31:50.713Z,94945.2
2022-12-08T01:32:53.195Z,94942.7
2022-12-08T01:33:55.675Z,94942.2
2022-12-08T01:34:58.156Z,94939.3
2022-12-08T01:36:00.751Z,94938
2022-12-08T01:37:02.976Z,94938.3
2022-12-08T01:38:05.455Z,94938
2022-12-08T01:39:07.935Z,94938.2
2022-12-08T01:40:10.503Z,94937.5
2022-12-08T01:41:12.983Z,94933.4
2022-12-08T01:42:15.457Z,94933.9
2022-12-08T01:43:17.938Z,94935.3
2022-12-08T01:44:20.108Z,94928.9
2022-12-08T01:45:22.590Z,94927.2
2022-12-08T01:46:24.818Z,94928.1
2022-12-08T01:47:27.178Z,94928.7
2022-12-08T01:48:29.786Z,94924.8
2022-12-08T01:49:31.990Z,94923.9
2022-12-08T01:50:34.203Z,94922.9
2022-12-08T01:51:36.494Z,94920.7
2022-12-08T01:52:38.990Z,94919.7
2022-12-08T01:53:41.477Z,94923.3
2022-12-08T01:54:44.062Z,94923.3
2022-12-08T01:55:46.546Z,94920.8
2022-12-08T01:56:48.743Z,94924
2022-12-08T01:57:51.225Z,94919.1
2022-12-08T01:58:53.424Z,94919.6
2022-12-08T01:59:55.908Z,94921.1
2022-12-08T02:00:58.315Z,94917.4
2022-12-08T02:02:01.141Z,94913.2
2022-12-08T02:03:04.170Z,94917.3
2022-12-08T02:04:06.602Z,94914.2
2022-12-08T02:05:08.805Z,94910.6
2022-12-08T02:06:11.291Z,94910.9
2022-12-08T02:07:13.865Z,94911.9
2022-12-08T02:08:16.753Z,94911.9
2022-12-08T02:09:19.057Z,94911.6
2022-12-08T02:10:21.259Z,94915.5
2022-12-08T02:11:23.455Z,94907.7
2022-12-08T02:12:25.667Z,94910.9
2022-12-08T02:13:27.860Z,94907.6
2022-12-08T02:14:30.336Z,94905.2
2022-12-08T02:15:33.092Z,94902.8
2022-12-08T02:16:35.400Z,94900
2022-12-08T02:17:37.575Z,94898.9
2022-12-08T02:18:40.057Z,94893.3
2022-12-08T02:19:42.253Z,94892.5
2022-12-08T02:20:44.724Z,94893.5
2022-12-08T02:21:47.208Z,94893.4
2022-12-08T02:22:49.769Z,94892.6
2022-12-08T02:23:52.275Z,94890
2022-12-08T02:24:54.743Z,94895.4
2022-12-08T02:25:56.409Z,94890.2
2022-12-08T02:26:58.582Z,94885.5
2022-12-08T02:28:01.073Z,94885.9
2022-12-08T02:29:03.281Z,94886.1
2022-12-08T02:30:07.437Z,94885.2
2022-12-08T02:31:10.550Z,94883.4
2022-12-08T02:32:12.882Z,94881.5
2022-12-08T02:33:15.386Z,94887.2
2022-12-08T02:34:17.602Z,94883.6
2022-12-08T02:35:19.801Z,94879.1
2022-12-08T02:36:21.996Z,94878.7
2022-12-08T02:37:24.473Z,94879.6
2022-12-08T02:38:27.026Z,94878.7
2022-12-08T02:39:29.534Z,94880.1
2022-12-08T02:40:32.017Z,94878.3
2022-12-08T02:41:34.500Z,94882.4
2022-12-08T02:42:36.428Z,94881.6
2022-12-08T02:43:38.908Z,94881.7
2022-12-08T02:44:41.389Z,94884.1
2022-12-08T02:45:43.598Z,94879.3
2022-12-08T02:46:45.922Z,94884.5
2022-12-08T02:47:48.269Z,94883.2
2022-12-08T02:48:50.491Z,94878.3
2022-12-08T02:49:52.727Z,94878.7
2022-12-08T02:50:54.651Z,94875.6
2022-12-08T02:51:56.578Z,94880.8
2022-12-08T02:52:59.072Z,94874
2022-12-08T02:54:01.699Z,94874.3
2022-12-08T02:55:03.669Z,94871.7
2022-12-08T02:56:05.875Z,94873
2022-12-08T02:57:08.357Z,94867.3
2022-12-08T02:58:10.558Z,94872.5
2022-12-08T02:59:12.764Z,94868.1
2022-12-08T03:00:15.265Z,94871.9
2022-12-08T03:01:18.011Z,94864.6
2022-12-08T03:02:20.965Z,94862.3
2022-12-08T03:03:23.291Z,94858.9
2022-12-08T03:04:25.514Z,94861.8
2022-12-08T03:05:28.006Z,94862.6
2022-12-08T03:06:30.488Z,94860
2022-12-08T03:07:32.727Z,94856.2
2022-12-08T03:08:35.217Z,94860.7
2022-12-08T03:09:37.535Z,94863.3
2022-12-08T03:10:40.028Z,94861.3
2022-12-08T03:11:42.219Z,94862.4
2022-12-08T03:12:44.419Z,94857
2022-12-08T03:13:46.641Z,94854.8
2022-12-08T03:14:48.859Z,94858.1
2022-12-08T03:15:51.590Z,94850.5
2022-12-08T03:16:54.175Z,94849.9
2022-12-08T03:17:56.104Z,94855.8
2022-12-08T03:18:58.025Z,94851.3
2022-12-08T03:20:00.627Z,94851.3
2022-12-08T03:21:03.072Z,94853.8
2022-12-08T03:22:05.280Z,94852.1
2022-12-08T03:23:07.222Z,94851.2
2022-12-08T03:24:09.407Z,94847.9
2022-12-08T03:25:11.731Z,94846.9
2022-12-08T03:26:13.937Z,94850.4
2022-12-08T03:27:15.959Z,94846.7
2022-12-08T03:28:18.514Z,94844
2022-12-08T03:29:20.998Z,94848.2
2022-12-08T03:30:23.551Z,94850.3
2022-12-08T03:31:26.326Z,94847.1
2022-12-08T03:32:28.665Z,94848.3
2022-12-08T03:33:31.171Z,94842.6
2022-12-08T03:34:33.650Z,94844.3
2022-12-08T03:35:36.162Z,94837.9
2022-12-08T03:36:38.653Z,94840.6
2022-12-08T03:37:41.136Z,94838.1
2022-12-08T03:38:43.057Z,94836.3
2022-12-08T03:39:45.276Z,94842.5
2022-12-08T03:40:47.855Z,94842.7
2022-12-08T03:41:50.088Z,94836.8
2022-12-08T03:42:52.296Z,94837.6
2022-12-08T03:43:54.235Z,94836.5
2022-12-08T03:44:56.427Z,94839.6
2022-12-08T03:45:58.533Z,94835.6
2022-12-08T03:47:01.045Z,94837.5
2022-12-08T03:48:03.256Z,94835.1
2022-12-08T03:49:05.737Z,94839.1
2022-12-08T03:50:08.598Z,94829.7
2022-12-08T03:51:10.802Z,94833.2
2022-12-08T03:52:13.014Z,94830.3
2022-12-08T03:53:15.222Z,94831.2
2022-12-08T03:54:17.709Z,94829.1
2022-12-08T03:55:19.620Z,94826.8
2022-12-08T03:56:22.190Z,94826.3
2022-12-08T03:57:24.709Z,94828.6
2022-12-08T03:58:27.203Z,94821.7
2022-12-08T03:59:34.140Z,94828.4
2022-12-08T04:00:36.371Z,94829.3
2022-12-08T04:01:39.275Z,94826.3
2022-12-08T04:02:41.913Z,94827.9
2022-12-08T04:03:44.547Z,94828.3
2022-12-08T04:04:46.808Z,94825.8
2022-12-08T04:05:49.286Z,94826.4
2022-12-08T04:06:51.206Z,94823.3
2022-12-08T04:07:53.984Z,94822.4
2022-12-08T04:08:55.740Z,94822
2022-12-08T04:09:57.947Z,94823.2
2022-12-08T04:11:00.162Z,94820.9
2022-12-08T04:12:02.721Z,94818.6
2022-12-08T04:13:05.238Z,94823.5
2022-12-08T04:14:07.175Z,94822.4
2022-12-08T04:15:09.398Z,94822.6
2022-12-08T04:16:11.849Z,94818.1
2022-12-08T04:17:14.146Z,94818.9
2022-12-08T04:18:16.624Z,94817
2022-12-08T04:19:19.120Z,94819
2022-12-08T04:20:21.600Z,94820.7
2022-12-08T04:21:24.083Z,94822.2
2022-12-08T04:22:27.168Z,94820.6
2022-12-08T04:23:29.352Z,94824.1
2022-12-08T04:24:31.570Z,94822.5
2022-12-08T04:25:33.787Z,94824.2
2022-12-08T04:26:35.979Z,94821.5
2022-12-08T04:27:38.545Z,94824.6
2022-12-08T04:28:41.047Z,94817.5
2022-12-08T04:29:43.282Z,94816
2022-12-08T04:30:45.768Z,94816.8
2022-12-08T04:31:48.256Z,94816.7
2022-12-08T04:32:50.356Z,94816.3
2022-12-08T04:33:52.567Z,94815
2022-12-08T04:34:55.039Z,94807.7
2022-12-08T04:35:57.238Z,94808.5
2022-12-08T04:36:59.165Z,94807.7
2022-12-08T04:38:01.651Z,94808.5
2022-12-08T04:39:04.136Z,94809
2022-12-08T04:40:07.748Z,94808.7
2022-12-08T04:41:10.316Z,94809.6
2022-12-08T04:42:12.549Z,94809.8
2022-12-08T04:43:14.550Z,94810
2022-12-08T04:44:17.086Z,94803.3
2022-12-08T04:45:19.598Z,94805.6
2022-12-08T04:46:22.489Z,94805.2
2022-12-08T04:47:25.080Z,94805.3
2022-12-08T04:48:27.564Z,94801.2
2022-12-08T04:49:29.764Z,94799.6
2022-12-08T04:50:31.961Z,94800.3
2022-12-08T04:51:34.162Z,94796.8
2022-12-08T04:52:36.101Z,94799.2
2022-12-08T04:54:43.555Z,94798.1
2022-12-08T04:55:46.045Z,94804.1
2022-12-08T04:56:48.517Z,94799.5
2022-12-08T04:57:50.721Z,94801.1
2022-12-08T04:58:53.279Z,94800.4
2022-12-08T04:59:55.770Z,94804.4
2022-12-08T05:00:58.518Z,94800.5
2022-12-08T05:02:01.920Z,94806.8
2022-12-08T05:03:05.169Z,94806.4
2022-12-08T05:04:07.766Z,94813.4
2022-12-08T05:05:10.338Z,94810.8
2022-12-08T05:06:12.828Z,94811
2022-12-08T05:07:15.113Z,94800.7
2022-12-08T05:08:17.675Z,94809.3
2022-12-08T05:09:20.249Z,94808
2022-12-08T05:10:22.458Z,94808.7
2022-12-08T05:11:24.696Z,94802.6
2022-12-08T05:12:27.210Z,94808.5
2022-12-08T05:13:29.712Z,94807.5
2022-12-08T05:14:32.018Z,94805.8
2022-12-08T05:15:34.518Z,94805.2
2022-12-08T05:16:37.071Z,94812.3
2022-12-08T05:17:39.165Z,94805.2
2022-12-08T05:18:41.381Z,94803.9
2022-12-08T05:19:43.884Z,94805.7
2022-12-08T05:20:46.370Z,94807.3
2022-12-08T05:21:48.295Z,94808.1
2022-12-08T05:22:50.517Z,94803.9
2022-12-08T05:23:52.423Z,94803.8
2022-12-08T05:24:54.625Z,94800.5
2022-12-08T05:25:56.820Z,94803.5
2022-12-08T05:26:59.033Z,94803.9
2022-12-08T05:29:06.502Z,94798.8
2022-12-08T05:30:09.134Z,94799.5
2022-12-08T05:31:11.785Z,94796.1
2022-12-08T05:32:13.536Z,94797.5
2022-12-08T05:33:16.020Z,94788.4
2022-12-08T05:34:18.234Z,94788.5
2022-12-08T05:35:20.718Z,94791.2
2022-12-08T05:36:22.934Z,94790.1
2022-12-08T05:37:25.143Z,94789.4
2022-12-08T05:38:27.627Z,94786.4
2022-12-08T05:39:30.178Z,94787.3
2022-12-08T05:40:32.389Z,94780.8
2022-12-08T05:41:34.583Z,94782.8
2022-12-08T05:42:37.065Z,94786.3
2022-12-08T05:43:39.305Z,94786.4
2022-12-08T05:44:41.875Z,94783.5
2022-12-08T05:45:44.827Z,94787.6
2022-12-08T05:46:47.520Z,94783
2022-12-08T05:47:49.730Z,94784.3
2022-12-08T05:48:52.252Z,94783.1
2022-12-08T05:49:54.741Z,94778.3
2022-12-08T05:50:56.960Z,94780.2
2022-12-08T05:51:59.171Z,94777.2
2022-12-08T05:53:01.653Z,94777.9
2022-12-08T05:54:03.854Z,94780.2
2022-12-08T05:55:06.342Z,94787.8
2022-12-08T05:56:08.960Z,94780.2
2022-12-08T05:57:11.448Z,94787
2022-12-08T05:58:13.932Z,94782.6
2022-12-08T05:59:16.164Z,94783.1
2022-12-08T06:00:18.655Z,94783
2022-12-08T06:01:21.327Z,94783.1
2022-12-08T06:02:24.515Z,94787
2022-12-08T06:03:27.571Z,94784.2
2022-12-08T06:04:30.226Z,94784
2022-12-08T06:05:32.729Z,94779.8
2022-12-08T06:06:35.210Z,94780.1
2022-12-08T06:07:37.927Z,94781.4
2022-12-08T06:08:40.194Z,94779.1
2022-12-08T06:09:42.425Z,94778.8
2022-12-08T06:10:44.721Z,94778.1
2022-12-08T06:11:46.935Z,94777.1
2022-12-08T06:12:49.423Z,94777
2022-12-08T06:13:51.913Z,94778.5
2022-12-08T06:14:54.128Z,94777.8
2022-12-08T06:15:56.647Z,94775.4
2022-12-08T06:16:59.542Z,94774.8
2022-12-08T06:18:01.949Z,94779.1
2022-12-08T06:19:04.157Z,94783.5
2022-12-08T06:20:07.524Z,94781.8
2022-12-08T06:21:09.899Z,94774.2
2022-12-08T06:22:12.109Z,94772
2022-12-08T06:23:14.594Z,94778.9
2022-12-08T06:24:17.080Z,94780.8
2022-12-08T06:25:18.998Z,94774.8
2022-12-08T06:26:21.204Z,94777.6
2022-12-08T06:27:23.696Z,94777
2022-12-08T06:28:25.926Z,94782.6
2022-12-08T06:29:27.908Z,94776.3
2022-12-08T06:30:30.127Z,94784.8
2022-12-08T06:31:33.028Z,94780
2022-12-08T06:32:35.704Z,94781.4
2022-12-08T06:33:38.266Z,94781.3
2022-12-08T06:34:40.748Z,94783.2
2022-12-08T06:35:43.245Z,94782.5
2022-12-08T06:36:45.737Z,94775.3
2022-12-08T06:37:47.942Z,94779
2022-12-08T06:38:49.895Z,94780
2022-12-08T06:39:52.424Z,94773
2022-12-08T06:40:54.072Z,94778.8
2022-12-08T06:41:56.289Z,94777.7
2022-12-08T06:42:58.771Z,94775.3
2022-12-08T06:44:00.421Z,94773.3
2022-12-08T06:45:02.634Z,94774
2022-12-08T06:46:04.887Z,94776.5
2022-12-08T06:47:06.922Z,94775.7
2022-12-08T06:48:09.505Z,94777.6
2022-12-08T06:49:12.012Z,94774.8
2022-12-08T06:50:14.523Z,94778.7
2022-12-08T06:51:17.137Z,94773.4
2022-12-08T06:52:19.677Z,94769
2022-12-08T06:53:21.590Z,94767.5
2022-12-08T06:54:23.810Z,94768.5
2022-12-08T06:56:31.265Z,94763.2
2022-12-08T06:57:33.761Z,94762.8
2022-12-08T06:58:36.255Z,94767.5
2022-12-08T06:59:38.175Z,94769.1
2022-12-08T07:00:40.116Z,94769.1
2022-12-08T07:01:42.739Z,94769.6
2022-12-08T07:02:46.023Z,94771.3
2022-12-08T07:03:48.838Z,94773.3
2022-12-08T07:04:50.846Z,94774.6
2022-12-08T07:05:53.361Z,94775.6
2022-12-08T07:06:55.324Z,94777.2
2022-12-08T07:07:57.937Z,94778.5
2022-12-08T07:09:00.569Z,94772.8
2022-12-08T07:10:04.830Z,94772.3
2022-12-08T07:11:07.454Z,94776.1
2022-12-08T07:12:09.971Z,94780.1
2022-12-08T07:13:11.911Z,94781.6
2022-12-08T07:14:14.138Z,94784.7
2022-12-08T07:15:16.711Z,94787.4
2022-12-08T07:16:19.363Z,94785.1
2022-12-08T07:17:21.704Z,94784.6
2022-12-08T07:18:24.207Z,94785.3
2022-12-08T07:19:26.898Z,94787.6
2022-12-08T07:20:29.879Z,94785.3
2022-12-08T07:21:32.406Z,94788.4
2022-12-08T07:22:34.895Z,94785.8
2022-12-08T07:23:37.399Z,94791.9
2022-12-08T07:24:54.305Z,94787.2
2022-12-08T07:25:56.785Z,94786.1
2022-12-08T07:26:58.981Z,94787.9
2022-12-08T07:28:00.923Z,94790.8
2022-12-08T07:29:03.418Z,94789.2
2022-12-08T07:30:07.167Z,94793.3
2022-12-08T07:31:09.923Z,94793.7
2022-12-08T07:32:12.502Z,94794.2
2022-12-08T07:33:14.696Z,94797.4
2022-12-08T07:34:17.207Z,94794.3
2022-12-08T07:35:19.798Z,94793.4
2022-12-08T07:36:22.311Z,94791.8
2022-12-08T07:37:24.568Z,94795.2
2022-12-08T07:38:27.062Z,94793.1
2022-12-08T07:39:29.539Z,94790.5
2022-12-08T07:40:32.021Z,94796.5
2022-12-08T07:41:34.236Z,94793.4
2022-12-08T07:42:36.725Z,94794.4
2022-12-08T07:43:38.932Z,94793.8
2022-12-08T07:44:41.427Z,94793.1
2022-12-08T07:45:43.781Z,94791.6
2022-12-08T07:46:46.572Z,94791.6
2022-12-08T07:47:49.099Z,94795.5
2022-12-08T07:48:51.603Z,94792.9
2022-12-08T07:49:53.840Z,94795.6
2022-12-08T07:50:56.454Z,94795.6
2022-12-08T07:51:58.691Z,94795.4
2022-12-08T07:53:01.052Z,94796.1
2022-12-08T07:54:03.561Z,94798.3
2022-12-08T07:55:06.036Z,94793.5
2022-12-08T07:56:08.538Z,94790.4
2022-12-08T07:57:10.759Z,94791.9
2022-12-08T07:58:12.971Z,94794.1
2022-12-08T07:59:15.475Z,94791.1
2022-12-08T08:00:17.960Z,94792
2022-12-08T08:01:20.760Z,94797
2022-12-08T08:03:28.296Z,94796.8
2022-12-08T08:04:30.804Z,94794.5
2022-12-08T08:05:33.401Z,94790.8
2022-12-08T08:06:35.990Z,94792
2022-12-08T08:07:38.433Z,94790.5
2022-12-08T08:08:40.483Z,94791
2022-12-08T08:09:42.693Z,94788.3
2022-12-08T08:10:45.189Z,94789.8
2022-12-08T08:12:52.657Z,94788.5
2022-12-08T08:13:55.202Z,94789.5
2022-12-08T08:14:57.406Z,94790.8
2022-12-08T08:16:00.627Z,94790.2
2022-12-08T08:17:03.681Z,94790.8
2022-12-08T08:18:05.922Z,94790.1
2022-12-08T08:19:08.129Z,94792.2
2022-12-08T08:20:10.339Z,94797.6
2022-12-08T08:22:17.682Z,94793.4
2022-12-08T08:23:19.933Z,94797.4
2022-12-08T08:24:22.440Z,94789.5
2022-12-08T08:25:24.958Z,94791
2022-12-08T08:26:27.459Z,94794.4
2022-12-08T08:27:29.677Z,94790
2022-12-08T08:28:31.662Z,94788.7
2022-12-08T08:29:34.151Z,94793.5
2022-12-08T08:30:36.744Z,94797.1
2022-12-08T08:31:39.777Z,94792.1
2022-12-08T08:32:42.462Z,94790.6
2022-12-08T08:33:44.944Z,94788.9
2022-12-08T08:34:46.884Z,94791.1
2022-12-08T08:35:48.531Z,94784.2
2022-12-08T08:36:50.705Z,94789.8
2022-12-08T08:37:53.503Z,94789.5
2022-12-08T08:38:55.452Z,94790.8
2022-12-08T08:39:57.662Z,94791.9
2022-12-08T08:41:00.144Z,94788.4
2022-12-08T08:42:02.866Z,94791.5
2022-12-08T08:43:04.769Z,94788.2
2022-12-08T08:44:07.008Z,94790
2022-12-08T08:45:09.520Z,94790.5
2022-12-08T08:46:12.130Z,94789.5
2022-12-08T08:47:14.153Z,94789.8
2022-12-08T08:48:16.365Z,94787.9
2022-12-08T08:49:18.616Z,94787.5
2022-12-08T08:50:20.827Z,94783.8
2022-12-08T08:51:23.035Z,94788.5
2022-12-08T08:52:25.526Z,94785.9
2022-12-08T08:53:28.144Z,94792.2
2022-12-08T08:54:30.683Z,94791.5
2022-12-08T08:55:32.891Z,94793.5
2022-12-08T08:56:35.107Z,94792.9
2022-12-08T08:57:37.009Z,94795.5
2022-12-08T08:58:39.210Z,94789.5
2022-12-08T08:59:41.429Z,94793.7
2022-12-08T09:00:43.678Z,94792.9
2022-12-08T09:01:46.551Z,94795
2022-12-08T09:02:48.857Z,94796.2
2022-12-08T09:03:51.054Z,94792.1
2022-12-08T09:04:53.921Z,94791.3
2022-12-08T09:05:56.893Z,94796.8
2022-12-08T09:06:59.511Z,94788.5
2022-12-08T09:08:02.297Z,94789.1
2022-12-08T09:09:05.004Z,94791.4
2022-12-08T09:10:08.918Z,94792.5
2022-12-08T09:11:11.375Z,94791.5
2022-12-08T09:12:13.853Z,94788.2
2022-12-08T09:13:16.095Z,94792
2022-12-08T09:14:18.013Z,94793.3
2022-12-08T09:15:20.520Z,94791.2
2022-12-08T09:16:23.291Z,94789.8
2022-12-08T09:17:25.453Z,94792.1
2022-12-08T09:18:27.669Z,94789.5
2022-12-08T09:19:29.882Z,94790.6
2022-12-08T09:20:32.156Z,94788.6
2022-12-08T09:21:34.415Z,94794.1
2022-12-08T09:22:36.357Z,94784
2022-12-08T09:23:38.591Z,94790.2
2022-12-08T09:24:41.196Z,94783.4
2022-12-08T09:25:43.415Z,94784.2
2022-12-08T09:26:45.680Z,94782.6
2022-12-08T09:27:47.608Z,94781.6
2022-12-08T09:28:50.108Z,94784.8
2022-12-08T09:29:52.590Z,94780.7
2022-12-08T09:30:55.340Z,94778.4
2022-12-08T09:31:58.100Z,94779
2022-12-08T09:33:00.508Z,94769
2022-12-08T09:34:03.055Z,94771.2
2022-12-08T09:35:05.316Z,94772
2022-12-08T09:36:07.246Z,94770.5
2022-12-08T09:37:09.819Z,94771.9
2022-12-08T09:38:11.794Z,94770.8
2022-12-08T09:39:14.303Z,94768.3
2022-12-08T09:40:16.658Z,94764.3
2022-12-08T09:41:18.992Z,94761
2022-12-08T09:42:21.203Z,94759.3
2022-12-08T09:43:23.789Z,94759.9
2022-12-08T09:44:26.017Z,94757.7
2022-12-08T09:45:27.997Z,94755.8
2022-12-08T09:46:30.590Z,94753.6
2022-12-08T09:48:37.896Z,94752
2022-12-08T09:49:39.855Z,94754.1
2022-12-08T09:50:42.080Z,94751.5
2022-12-08T09:51:44.586Z,94751.5
2022-12-08T09:52:46.922Z,94751.1
2022-12-08T09:53:49.843Z,94749.7
2022-12-08T09:54:52.389Z,94748.1
2022-12-08T09:55:54.691Z,94744.9
2022-12-08T09:56:56.937Z,94743.8
2022-12-08T09:57:59.667Z,94739.5
2022-12-08T09:59:02.142Z,94742.5
2022-12-08T10:00:06.214Z,94742.6
2022-12-08T10:01:09.472Z,94738.7
2022-12-08T10:02:12.211Z,94737.6
2022-12-08T10:04:19.964Z,94734
2022-12-08T10:05:22.640Z,94727.3
2022-12-08T10:06:25.023Z,94728.8
2022-12-08T10:07:26.705Z,94727.7
2022-12-08T10:08:29.657Z,94726.4
2022-12-08T10:09:32.349Z,94726.9
2022-12-08T10:10:34.836Z,94726.7
2022-12-08T10:11:37.153Z,94724.7
2022-12-08T10:12:39.652Z,94724.4
2022-12-08T10:13:41.873Z,94724.4
2022-12-08T10:14:44.363Z,94722.9
2022-12-08T10:15:47.282Z,94726.3
2022-12-08T10:16:49.794Z,94716.7
2022-12-08T10:17:52.418Z,94721.9
2022-12-08T10:18:54.657Z,94719.7
2022-12-08T10:19:56.904Z,94714.8
2022-12-08T10:20:59.088Z,94716.3
2022-12-08T10:22:01.583Z,94716.9
2022-12-08T10:23:03.516Z,94717.6
2022-12-08T10:24:05.741Z,94707.5
2022-12-08T10:25:08.218Z,94708.5
2022-12-08T10:26:10.453Z,94705.1
2022-12-08T10:27:12.774Z,94709.1
2022-12-08T10:28:15.303Z,94707.2
2022-12-08T10:29:17.829Z,94702.9
2022-12-08T10:30:20.515Z,94705.4
2022-12-08T10:31:23.176Z,94703.3
2022-12-08T10:32:25.889Z,94696.6
2022-12-08T10:33:28.378Z,94697.5
2022-12-08T10:34:30.883Z,94695.1
2022-12-08T10:35:33.384Z,94695.4
2022-12-08T10:36:35.865Z,94699.8
2022-12-08T10:37:38.355Z,94697
2022-12-08T10:38:40.565Z,94695.7
2022-12-08T10:39:43.068Z,94693.8
2022-12-08T10:40:47.328Z,94695.9
2022-12-08T10:41:49.816Z,94692.3
2022-12-08T10:42:52.494Z,94687.5
2022-12-08T10:43:54.717Z,94686.6
2022-12-08T10:44:56.942Z,94684.1
2022-12-08T10:45:59.421Z,94683.2
2022-12-08T10:47:02.040Z,94680.8
2022-12-08T10:48:04.401Z,94682
2022-12-08T10:49:06.329Z,94686.1
2022-12-08T10:50:09.080Z,94680.6
2022-12-08T10:51:11.571Z,94683.5
2022-12-08T10:52:14.054Z,94685.4
2022-12-08T10:53:16.561Z,94687.2
2022-12-08T10:55:23.499Z,94679.7
2022-12-08T10:56:25.725Z,94677.4
2022-12-08T10:57:28.310Z,94676.8
2022-12-08T10:58:30.807Z,94671.8
2022-12-08T10:59:33.424Z,94669.5
2022-12-08T11:00:36.558Z,94672.9
2022-12-08T11:01:39.775Z,94671.1
2022-12-08T11:02:42.906Z,94669.2
2022-12-08T11:03:45.227Z,94671.3
2022-12-08T11:04:47.428Z,94670.3
2022-12-08T11:05:49.646Z,94670.9
2022-12-08T11:06:51.866Z,94663
2022-12-08T11:07:54.777Z,94664.7
2022-12-08T11:08:56.633Z,94664.3
2022-12-08T11:09:59.133Z,94661.2
2022-12-08T11:11:01.053Z,94656.4
2022-12-08T11:12:03.547Z,94658.9
2022-12-08T11:13:05.769Z,94661.1
2022-12-08T11:14:08.048Z,94658
2022-12-08T11:15:10.359Z,94654.6
2022-12-08T11:16:12.955Z,94655.7
2022-12-08T11:17:15.571Z,94652.3
2022-12-08T11:18:17.783Z,94647.2
2022-12-08T11:19:19.732Z,94646.2
2022-12-08T11:20:21.680Z,94646.1
2022-12-08T11:21:24.213Z,94651.3
2022-12-08T11:22:26.724Z,94647.2
2022-12-08T11:23:28.941Z,94644.4
2022-12-08T11:25:36.466Z,94647.3
2022-12-08T11:26:38.656Z,94645
2022-12-08T11:27:40.305Z,94645.3
2022-12-08T11:28:42.244Z,94643.4
2022-12-08T11:29:44.833Z,94645.2
2022-12-08T11:30:47.358Z,94644.4
2022-12-08T11:31:50.032Z,94641.3
2022-12-08T11:32:52.505Z,94641.1
2022-12-08T11:33:54.993Z,94639.9
2022-12-08T11:34:57.216Z,94642
2022-12-08T11:35:59.420Z,94641.6
2022-12-08T11:37:01.920Z,94637.8
2022-12-08T11:39:09.407Z,94636.5
2022-12-08T11:40:11.628Z,94637.6
2022-12-08T11:42:18.804Z,94635
2022-12-08T11:43:21.290Z,94630.2
2022-12-08T11:44:23.225Z,94628.6
2022-12-08T11:45:25.835Z,94630.5
2022-12-08T11:46:28.468Z,94630.4
2022-12-08T11:47:30.802Z,94627.9
2022-12-08T11:48:33.016Z,94626.1
2022-12-08T11:49:35.537Z,94622.2
2022-12-08T11:50:37.738Z,94624.2
2022-12-08T11:51:40.228Z,94628.4
2022-12-08T11:52:42.448Z,94622.4
2022-12-08T11:53:44.942Z,94623.2
2022-12-08T11:54:47.426Z,94617.8
2022-12-08T11:55:51.753Z,94622.8
2022-12-08T11:56:53.666Z,94622.2
2022-12-08T11:57:55.898Z,94620.9
2022-12-08T11:58:58.512Z,94620
2022-12-08T12:00:00.720Z,94616.1
2022-12-08T12:01:03.012Z,94622.3
2022-12-08T12:02:05.858Z,94616.6
2022-12-08T12:03:08.482Z,94617
2022-12-08T12:04:10.751Z,94617
2022-12-08T12:05:13.245Z,94619.2
2022-12-08T12:08:27.497Z,94612.2
2022-12-08T12:09:30.136Z,94615.1
2022-12-08T12:10:32.610Z,94610.5
2022-12-08T12:11:34.832Z,94612.5
2022-12-08T12:13:42.320Z,94609.2
2022-12-08T12:14:44.540Z,94606.8
2022-12-08T12:15:46.744Z,94611.7
2022-12-08T12:16:49.668Z,94609.8
2022-12-08T12:17:52.341Z,94612.8
2022-12-08T12:18:54.836Z,94610
2022-12-08T12:19:57.308Z,94605.9
2022-12-08T12:20:59.531Z,94613.1
2022-12-08T12:22:01.708Z,94609.6
2022-12-08T12:23:03.959Z,94608.3
2022-12-08T12:24:06.458Z,94608
2022-12-08T12:25:08.936Z,94604
2022-12-08T12:26:11.426Z,94608.5
2022-12-08T12:27:13.964Z,94606.8
2022-12-08T12:28:16.365Z,94605.6
2022-12-08T12:29:18.030Z,94606.1
2022-12-08T12:30:20.538Z,94598.9
2022-12-08T12:31:22.693Z,94604.3
2022-12-08T12:32:25.299Z,94603.6
2022-12-08T12:33:27.815Z,94605.2
2022-12-08T12:34:30.296Z,94605.9
2022-12-08T12:35:32.490Z,94604.1
2022-12-08T12:36:34.172Z,94603.3
2022-12-08T12:37:36.666Z,94603.5
2022-12-08T12:38:38.895Z,94604
2022-12-08T12:39:41.089Z,94601.6
2022-12-08T12:40:43.291Z,94600
2022-12-08T12:41:45.216Z,94605.1
2022-12-08T12:42:47.141Z,94599.5
2022-12-08T12:43:49.620Z,94598.1
2022-12-08T12:44:51.832Z,94595.4
2022-12-08T12:45:54.264Z,94591.7
2022-12-08T12:46:56.571Z,94596.1
2022-12-08T12:47:59.162Z,94593.7
2022-12-08T12:49:01.101Z,94588.7
2022-12-08T12:50:04.444Z,94591.5
2022-12-08T12:51:07.091Z,94590.2
2022-12-08T12:52:09.032Z,94587.9
2022-12-08T12:54:16.226Z,94585.2
2022-12-08T12:55:18.745Z,94582.4
2022-12-08T12:56:20.946Z,94582.3
2022-12-08T12:57:22.910Z,94585.7
2022-12-08T12:58:24.838Z,94585.2
2022-12-08T12:59:27.530Z,94588.1
2022-12-08T13:00:30.027Z,94587.4